createdAt,value
2023-04-04T00:00:09.370Z,943.74
2023-04-04T00:01:09.342Z,943.69
2023-04-04T00:02:09.334Z,943.72
2023-04-04T00:03:09.635Z,943.70
2023-04-04T00:04:09.438Z,943.68
2023-04-04T00:05:09.372Z,943.68
2023-04-04T00:06:09.335Z,943.68
2023-04-04T00:07:09.330Z,943.68
2023-04-04T00:08:09.285Z,943.58
2023-04-04T00:09:09.349Z,943.65
2023-04-04T00:10:09.284Z,943.62
2023-04-04T00:11:09.298Z,943.62
2023-04-04T00:12:09.331Z,943.62
2023-04-04T00:13:09.247Z,943.64
2023-04-04T00:14:09.282Z,943.61
2023-04-04T00:15:09.263Z,943.60
2023-04-04T00:16:14.259Z,943.65
2023-04-04T00:17:09.281Z,943.59
2023-04-04T00:18:09.253Z,943.64
2023-04-04T00:19:09.204Z,943.59
2023-04-04T00:20:09.304Z,943.55
2023-04-04T00:21:09.164Z,943.57
2023-04-04T00:22:09.168Z,943.53
2023-04-04T00:23:09.130Z,943.55
2023-04-04T00:24:09.153Z,943.51
2023-04-04T00:25:09.119Z,943.52
2023-04-04T00:26:09.113Z,943.52
2023-04-04T00:27:09.122Z,943.50
2023-04-04T00:28:09.188Z,943.47
2023-04-04T00:29:09.151Z,943.49
2023-04-04T00:30:09.072Z,943.46
2023-04-04T00:31:09.116Z,943.48
2023-04-04T00:32:09.092Z,943.49
2023-04-04T00:33:09.192Z,943.46
2023-04-04T00:34:09.109Z,943.45
2023-04-04T00:35:09.040Z,943.40
2023-04-04T00:36:09.058Z,943.42
2023-04-04T00:37:09.046Z,943.42
2023-04-04T00:38:08.990Z,943.43
2023-04-04T00:39:08.969Z,943.44
2023-04-04T00:40:09.066Z,943.41
2023-04-04T00:41:08.962Z,943.43
2023-04-04T00:42:08.935Z,943.41
2023-04-04T00:43:08.971Z,943.39
2023-04-04T00:44:08.944Z,943.40
2023-04-04T00:45:09.007Z,943.39
2023-04-04T00:46:08.992Z,943.41
2023-04-04T00:47:08.876Z,943.40
2023-04-04T00:48:09.005Z,943.38
2023-04-04T00:49:08.877Z,943.36
2023-04-04T00:50:08.882Z,943.37
2023-04-04T00:51:08.902Z,943.38
2023-04-04T00:52:08.885Z,943.39
2023-04-04T00:53:08.908Z,943.32
2023-04-04T00:54:08.831Z,943.33
2023-04-04T00:55:08.811Z,943.36
2023-04-04T00:56:08.845Z,943.32
2023-04-04T00:57:08.852Z,943.34
2023-04-04T00:58:08.782Z,943.30
2023-04-04T00:59:08.794Z,943.27
2023-04-04T01:00:08.786Z,943.24
2023-04-04T01:01:08.793Z,943.25
2023-04-04T01:02:08.796Z,943.22
2023-04-04T01:03:08.894Z,943.25
2023-04-04T01:04:08.782Z,943.27
2023-04-04T01:05:08.882Z,943.27
2023-04-04T01:06:08.753Z,943.28
2023-04-04T01:07:08.691Z,943.31
2023-04-04T01:08:08.793Z,943.28
2023-04-04T01:09:08.687Z,943.30
2023-04-04T01:10:08.699Z,943.28
2023-04-04T01:11:08.724Z,943.26
2023-04-04T01:12:08.671Z,943.28
2023-04-04T01:13:08.640Z,943.25
2023-04-04T01:14:08.616Z,943.27
2023-04-04T01:15:08.678Z,943.27
2023-04-04T01:16:08.670Z,943.25
2023-04-04T01:17:08.632Z,943.23
2023-04-04T01:18:08.682Z,943.27
2023-04-04T01:19:08.582Z,943.25
2023-04-04T01:20:08.699Z,943.20
2023-04-04T01:21:08.542Z,943.23
2023-04-04T01:22:08.544Z,943.22
2023-04-04T01:23:08.530Z,943.20
2023-04-04T01:24:08.541Z,943.23
2023-04-04T01:25:08.563Z,943.20
2023-04-04T01:26:08.498Z,943.16
2023-04-04T01:27:08.493Z,943.17
2023-04-04T01:28:08.499Z,943.18
2023-04-04T01:29:08.466Z,943.21
2023-04-04T01:30:08.470Z,943.23
2023-04-04T01:31:08.492Z,943.20
2023-04-04T01:32:08.504Z,943.19
2023-04-04T01:33:08.484Z,943.16
2023-04-04T01:34:08.426Z,943.17
2023-04-04T01:35:08.438Z,943.14
2023-04-04T01:36:08.485Z,943.17
2023-04-04T01:37:08.382Z,943.12
2023-04-04T01:38:08.415Z,943.09
2023-04-04T01:39:08.369Z,943.15
2023-04-04T01:40:08.344Z,943.08
2023-04-04T01:41:08.399Z,943.11
2023-04-04T01:42:08.345Z,943.08
2023-04-04T01:43:08.334Z,943.12
2023-04-04T01:44:08.332Z,943.08
2023-04-04T01:45:08.374Z,943.06
2023-04-04T01:46:08.713Z,943.07
2023-04-04T01:47:08.360Z,943.04
2023-04-04T01:48:08.298Z,943.05
2023-04-04T01:49:09.041Z,943.06
2023-04-04T01:50:08.267Z,943.08
2023-04-04T01:51:08.272Z,943.07
2023-04-04T01:52:08.281Z,943.04
2023-04-04T01:53:08.229Z,943.05
2023-04-04T01:54:08.254Z,943.02
2023-04-04T01:55:08.216Z,943.02
2023-04-04T01:56:08.195Z,943.03
2023-04-04T01:57:08.204Z,943.01
2023-04-04T01:58:08.189Z,943.02
2023-04-04T01:59:08.205Z,943.01
2023-04-04T02:00:08.160Z,942.96
2023-04-04T02:01:08.248Z,942.95
2023-04-04T02:02:08.136Z,942.93
2023-04-04T02:03:08.138Z,942.91
2023-04-04T02:04:08.201Z,942.87
2023-04-04T02:05:08.114Z,942.90
2023-04-04T02:06:08.134Z,942.87
2023-04-04T02:07:08.207Z,942.92
2023-04-04T02:08:08.107Z,942.88
2023-04-04T02:09:08.216Z,942.95
2023-04-04T02:10:08.137Z,942.88
2023-04-04T02:11:08.046Z,942.89
2023-04-04T02:12:08.058Z,942.91
2023-04-04T02:13:08.057Z,942.87
2023-04-04T02:14:08.037Z,942.88
2023-04-04T02:15:08.038Z,942.85
2023-04-04T02:16:08.153Z,942.84
2023-04-04T02:17:08.054Z,942.87
2023-04-04T02:18:08.033Z,942.89
2023-04-04T02:19:07.981Z,942.82
2023-04-04T02:20:08.052Z,942.86
2023-04-04T02:21:07.957Z,942.81
2023-04-04T02:22:08.080Z,942.85
2023-04-04T02:23:08.011Z,942.82
2023-04-04T02:24:07.920Z,942.81
2023-04-04T02:25:07.947Z,942.78
2023-04-04T02:26:07.903Z,942.77
2023-04-04T02:27:07.914Z,942.77
2023-04-04T02:28:07.881Z,942.77
2023-04-04T02:29:07.926Z,942.80
2023-04-04T02:30:07.888Z,942.83
2023-04-04T02:31:07.887Z,942.83
2023-04-04T02:32:07.878Z,942.75
2023-04-04T02:33:08.004Z,942.79
2023-04-04T02:34:07.818Z,942.73
2023-04-04T02:35:07.814Z,942.80
2023-04-04T02:36:07.970Z,942.76
2023-04-04T02:37:07.805Z,942.76
2023-04-04T02:38:07.811Z,942.81
2023-04-04T02:39:07.777Z,942.76
2023-04-04T02:40:07.802Z,942.78
2023-04-04T02:41:07.785Z,942.76
2023-04-04T02:42:07.762Z,942.80
2023-04-04T02:43:07.787Z,942.73
2023-04-04T02:44:07.728Z,942.74
2023-04-04T02:45:07.760Z,942.73
2023-04-04T02:46:20.379Z,942.73
2023-04-04T02:47:08.735Z,942.73
2023-04-04T02:48:08.015Z,942.72
2023-04-04T02:49:07.822Z,942.72
2023-04-04T02:50:07.717Z,942.71
2023-04-04T02:51:07.714Z,942.76
2023-04-04T02:52:07.673Z,942.74
2023-04-04T02:53:07.749Z,942.77
2023-04-04T02:54:07.616Z,942.75
2023-04-04T02:55:07.767Z,942.77
2023-04-04T02:56:07.738Z,942.77
2023-04-04T02:57:07.606Z,942.73
2023-04-04T02:58:07.605Z,942.72
2023-04-04T02:59:07.641Z,942.76
2023-04-04T03:00:07.618Z,942.74
2023-04-04T03:01:07.651Z,942.73
2023-04-04T03:02:07.581Z,942.74
2023-04-04T03:03:07.745Z,942.76
2023-04-04T03:04:07.725Z,942.72
2023-04-04T03:05:07.567Z,942.68
2023-04-04T03:06:07.608Z,942.67
2023-04-04T03:07:07.492Z,942.69
2023-04-04T03:08:07.587Z,942.69
2023-04-04T03:09:07.500Z,942.67
2023-04-04T03:10:07.627Z,942.65
2023-04-04T03:11:07.484Z,942.70
2023-04-04T03:12:07.462Z,942.69
2023-04-04T03:13:07.583Z,942.69
2023-04-04T03:14:07.442Z,942.66
2023-04-04T03:15:07.416Z,942.70
2023-04-04T03:16:07.656Z,942.71
2023-04-04T03:17:07.423Z,942.73
2023-04-04T03:18:07.460Z,942.65
2023-04-04T03:19:07.414Z,942.70
2023-04-04T03:20:07.382Z,942.68
2023-04-04T03:21:14.925Z,942.66
2023-04-04T03:22:07.362Z,942.65
2023-04-04T03:23:07.338Z,942.70
2023-04-04T03:24:07.457Z,942.65
2023-04-04T03:25:07.324Z,942.69
2023-04-04T03:26:07.447Z,942.72
2023-04-04T03:27:07.306Z,942.76
2023-04-04T03:28:07.283Z,942.70
2023-04-04T03:29:07.276Z,942.71
2023-04-04T03:30:07.324Z,942.69
2023-04-04T03:31:07.285Z,942.73
2023-04-04T03:32:07.406Z,942.72
2023-04-04T03:33:07.314Z,942.68
2023-04-04T03:34:07.233Z,942.68
2023-04-04T03:35:07.233Z,942.69
2023-04-04T03:36:07.793Z,942.69
2023-04-04T03:37:07.225Z,942.76
2023-04-04T03:38:07.227Z,942.71
2023-04-04T03:39:07.239Z,942.74
2023-04-04T03:40:07.206Z,942.71
2023-04-04T03:41:07.167Z,942.69
2023-04-04T03:42:07.216Z,942.68
2023-04-04T03:43:07.173Z,942.75
2023-04-04T03:44:07.150Z,942.71
2023-04-04T03:45:07.135Z,942.72
2023-04-04T03:46:07.158Z,942.80
2023-04-04T03:47:07.112Z,942.81
2023-04-04T03:48:07.166Z,942.81
2023-04-04T03:49:07.078Z,942.79
2023-04-04T03:50:07.145Z,942.77
2023-04-04T03:51:07.179Z,942.81
2023-04-04T03:52:07.041Z,942.80
2023-04-04T03:53:07.080Z,942.84
2023-04-04T03:54:07.063Z,942.76
2023-04-04T03:55:07.085Z,942.80
2023-04-04T03:56:07.049Z,942.78
2023-04-04T03:57:07.178Z,942.81
2023-04-04T03:58:06.984Z,942.77
2023-04-04T03:59:07.016Z,942.80
2023-04-04T04:00:07.025Z,942.80
2023-04-04T04:01:07.007Z,942.79
2023-04-04T04:02:07.008Z,942.77
2023-04-04T04:03:07.063Z,942.78
2023-04-04T04:04:06.982Z,942.81
2023-04-04T04:05:06.909Z,942.82
2023-04-04T04:06:06.903Z,942.79
2023-04-04T04:07:06.980Z,942.81
2023-04-04T04:08:06.933Z,942.80
2023-04-04T04:09:06.953Z,942.82
2023-04-04T04:10:06.874Z,942.81
2023-04-04T04:11:06.929Z,942.81
2023-04-04T04:12:06.920Z,942.87
2023-04-04T04:13:06.936Z,942.85
2023-04-04T04:14:06.826Z,942.89
2023-04-04T04:15:06.842Z,942.86
2023-04-04T04:16:06.976Z,942.83
2023-04-04T04:17:06.864Z,942.88
2023-04-04T04:18:06.831Z,942.87
2023-04-04T04:19:06.800Z,942.84
2023-04-04T04:20:06.796Z,942.83
2023-04-04T04:21:06.776Z,942.85
2023-04-04T04:22:06.789Z,942.90
2023-04-04T04:23:06.778Z,942.87
2023-04-04T04:24:06.753Z,942.89
2023-04-04T04:25:06.739Z,942.87
2023-04-04T04:26:06.748Z,942.87
2023-04-04T04:27:06.736Z,942.89
2023-04-04T04:28:06.702Z,942.91
2023-04-04T04:29:06.723Z,942.91
2023-04-04T04:30:06.713Z,942.94
2023-04-04T04:31:06.692Z,942.90
2023-04-04T04:32:06.655Z,942.83
2023-04-04T04:33:06.756Z,942.84
2023-04-04T04:34:06.708Z,942.88
2023-04-04T04:35:06.661Z,942.89
2023-04-04T04:36:06.667Z,942.94
2023-04-04T04:37:06.613Z,942.93
2023-04-04T04:38:06.590Z,942.91
2023-04-04T04:39:06.597Z,942.92
2023-04-04T04:40:06.746Z,942.87
2023-04-04T04:41:06.570Z,942.94
2023-04-04T04:42:06.563Z,942.90
2023-04-04T04:43:06.601Z,942.95
2023-04-04T04:44:06.585Z,942.95
2023-04-04T04:45:06.528Z,942.92
2023-04-04T04:46:06.523Z,942.98
2023-04-04T04:47:06.635Z,942.96
2023-04-04T04:48:06.527Z,942.97
2023-04-04T04:49:06.562Z,942.92
2023-04-04T04:50:06.679Z,942.94
2023-04-04T04:51:06.493Z,942.97
2023-04-04T04:52:06.475Z,942.93
2023-04-04T04:53:06.449Z,943.00
2023-04-04T04:54:06.488Z,942.95
2023-04-04T04:55:06.452Z,942.96
2023-04-04T04:56:06.431Z,942.97
2023-04-04T04:57:06.483Z,942.96
2023-04-04T04:58:06.405Z,942.96
2023-04-04T04:59:06.440Z,942.96
2023-04-04T05:00:06.432Z,942.98
2023-04-04T05:01:06.413Z,942.98
2023-04-04T05:02:06.381Z,943.01
2023-04-04T05:03:07.266Z,942.98
2023-04-04T05:04:06.344Z,943.01
2023-04-04T05:05:06.383Z,943.00
2023-04-04T05:06:06.348Z,942.99
2023-04-04T05:07:06.378Z,942.96
2023-04-04T05:08:06.358Z,942.92
2023-04-04T05:09:06.387Z,943.00
2023-04-04T05:10:06.325Z,943.00
2023-04-04T05:11:06.275Z,943.02
2023-04-04T05:12:06.317Z,943.03
2023-04-04T05:13:06.273Z,943.01
2023-04-04T05:14:06.274Z,942.97
2023-04-04T05:15:06.249Z,943.00
2023-04-04T05:16:06.309Z,943.00
2023-04-04T05:17:06.248Z,943.05
2023-04-04T05:18:06.230Z,943.01
2023-04-04T05:19:06.380Z,943.08
2023-04-04T05:20:06.233Z,943.06
2023-04-04T05:21:06.209Z,943.01
2023-04-04T05:22:06.162Z,943.05
2023-04-04T05:23:06.253Z,943.08
2023-04-04T05:24:06.164Z,943.04
2023-04-04T05:25:06.141Z,943.05
2023-04-04T05:26:06.118Z,943.06
2023-04-04T05:27:06.315Z,943.04
2023-04-04T05:28:06.152Z,943.05
2023-04-04T05:29:06.107Z,943.06
2023-04-04T05:30:06.154Z,943.02
2023-04-04T05:31:06.091Z,943.07
2023-04-04T05:32:06.213Z,943.01
2023-04-04T05:33:06.069Z,943.06
2023-04-04T05:34:06.055Z,943.07
2023-04-04T05:35:06.194Z,943.00
2023-04-04T05:36:06.042Z,943.03
2023-04-04T05:37:06.072Z,943.09
2023-04-04T05:38:05.998Z,943.04
2023-04-04T05:39:06.006Z,943.04
2023-04-04T05:40:06.047Z,943.05
2023-04-04T05:41:06.068Z,943.08
2023-04-04T05:42:06.019Z,943.01
2023-04-04T05:43:05.984Z,943.02
2023-04-04T05:44:06.001Z,942.97
2023-04-04T05:45:05.955Z,942.99
2023-04-04T05:46:05.980Z,943.00
2023-04-04T05:47:05.926Z,943.02
2023-04-04T05:48:05.985Z,943.05
2023-04-04T05:49:05.929Z,943.02
2023-04-04T05:50:05.933Z,943.02
2023-04-04T05:51:05.918Z,942.97
2023-04-04T05:52:05.857Z,942.96
2023-04-04T05:53:05.958Z,942.99
2023-04-04T05:54:06.063Z,942.93
2023-04-04T05:55:05.831Z,942.97
2023-04-04T05:56:05.848Z,943.02
2023-04-04T05:57:05.807Z,942.96
2023-04-04T05:58:05.804Z,942.94
2023-04-04T05:59:05.876Z,942.87
2023-04-04T06:00:05.873Z,942.89
2023-04-04T06:01:05.774Z,942.92
2023-04-04T06:02:05.785Z,942.93
2023-04-04T06:03:05.837Z,942.92
2023-04-04T06:04:05.776Z,942.93
2023-04-04T06:05:05.816Z,942.97
2023-04-04T06:06:05.831Z,942.87
2023-04-04T06:07:05.706Z,942.92
2023-04-04T06:08:05.711Z,942.90
2023-04-04T06:09:08.216Z,942.85
2023-04-04T06:10:05.715Z,942.84
2023-04-04T06:11:05.689Z,942.85
2023-04-04T06:12:05.669Z,942.86
2023-04-04T06:13:05.684Z,942.79
2023-04-04T06:14:05.636Z,942.84
2023-04-04T06:15:05.654Z,942.85
2023-04-04T06:16:05.695Z,942.85
2023-04-04T06:17:10.195Z,942.83
2023-04-04T06:18:05.670Z,942.83
2023-04-04T06:19:05.791Z,942.80
2023-04-04T06:20:05.648Z,942.77
2023-04-04T06:21:05.572Z,942.82
2023-04-04T06:22:05.613Z,942.75
2023-04-04T06:23:05.613Z,942.72
2023-04-04T06:24:05.591Z,942.71
2023-04-04T06:25:05.542Z,942.76
2023-04-04T06:26:05.555Z,942.76
2023-04-04T06:27:05.521Z,942.75
2023-04-04T06:28:05.524Z,942.74
2023-04-04T06:29:05.509Z,942.78
2023-04-04T06:30:05.518Z,942.78
2023-04-04T06:31:05.671Z,942.79
2023-04-04T06:32:05.453Z,942.76
2023-04-04T06:33:05.490Z,942.76
2023-04-04T06:34:05.433Z,942.75
2023-04-04T06:35:05.462Z,942.75
2023-04-04T06:36:05.616Z,942.75
2023-04-04T06:37:05.384Z,942.75
2023-04-04T06:38:05.396Z,942.75
2023-04-04T06:39:05.384Z,942.70
2023-04-04T06:40:05.457Z,942.72
2023-04-04T06:41:05.480Z,942.72
2023-04-04T06:42:05.428Z,942.76
2023-04-04T06:43:05.392Z,942.68
2023-04-04T06:44:05.365Z,942.67
2023-04-04T06:45:05.363Z,942.67
2023-04-04T06:46:05.309Z,942.69
2023-04-04T06:47:10.225Z,942.67
2023-04-04T06:48:05.441Z,942.68
2023-04-04T06:49:05.290Z,942.67
2023-04-04T06:50:05.309Z,942.66
2023-04-04T06:51:05.270Z,942.63
2023-04-04T06:52:05.386Z,942.65
2023-04-04T06:53:05.291Z,942.61
2023-04-04T06:54:05.296Z,942.68
2023-04-04T06:55:05.466Z,942.66
2023-04-04T06:56:05.205Z,942.62
2023-04-04T06:57:05.208Z,942.68
2023-04-04T06:58:05.201Z,942.62
2023-04-04T06:59:05.244Z,942.53
2023-04-04T07:00:05.151Z,942.50
2023-04-04T07:01:05.261Z,942.50
2023-04-04T07:02:05.687Z,942.56
2023-04-04T07:03:05.172Z,942.52
2023-04-04T07:04:05.272Z,942.55
2023-04-04T07:05:05.172Z,942.51
2023-04-04T07:06:05.141Z,942.50
2023-04-04T07:07:05.069Z,942.58
2023-04-04T07:08:05.080Z,942.57
2023-04-04T07:09:07.171Z,942.57
2023-04-04T07:10:05.062Z,942.52
2023-04-04T07:11:05.064Z,942.43
2023-04-04T07:12:05.025Z,942.55
2023-04-04T07:13:05.022Z,942.43
2023-04-04T07:14:05.020Z,942.41
2023-04-04T07:15:05.031Z,942.46
2023-04-04T07:16:05.058Z,942.39
2023-04-04T07:17:13.734Z,942.46
2023-04-04T07:18:06.002Z,942.44
2023-04-04T07:19:04.952Z,942.45
2023-04-04T07:20:05.065Z,942.43
2023-04-04T07:21:04.939Z,942.42
2023-04-04T07:22:04.924Z,942.36
2023-04-04T07:23:04.976Z,942.25
2023-04-04T07:24:04.939Z,942.33
2023-04-04T07:25:05.301Z,942.34
2023-04-04T07:26:04.880Z,942.37
2023-04-04T07:27:04.878Z,942.31
2023-04-04T07:28:12.462Z,942.36
2023-04-04T07:29:05.840Z,942.32
2023-04-04T07:30:04.932Z,942.32
2023-04-04T07:31:04.831Z,942.35
2023-04-04T07:32:04.893Z,942.28
2023-04-04T07:33:04.915Z,942.16
2023-04-04T07:34:04.808Z,942.23
2023-04-04T07:35:04.785Z,942.18
2023-04-04T07:36:04.869Z,942.18
2023-04-04T07:37:04.875Z,942.21
2023-04-04T07:38:04.746Z,942.20
2023-04-04T07:39:04.737Z,942.23
2023-04-04T07:40:04.737Z,942.18
2023-04-04T07:41:04.700Z,942.15
2023-04-04T07:42:04.691Z,942.18
2023-04-04T07:43:04.735Z,942.20
2023-04-04T07:44:04.686Z,942.13
2023-04-04T07:45:04.711Z,942.18
2023-04-04T07:46:04.705Z,942.17
2023-04-04T07:47:09.672Z,942.23
2023-04-04T07:48:05.752Z,942.22
2023-04-04T07:49:04.641Z,942.15
2023-04-04T07:50:04.634Z,942.13
2023-04-04T07:51:04.599Z,942.15
2023-04-04T07:52:04.655Z,942.13
2023-04-04T07:53:04.604Z,942.17
2023-04-04T07:54:04.573Z,942.09
2023-04-04T07:55:04.578Z,942.11
2023-04-04T07:56:04.579Z,941.98
2023-04-04T07:57:04.556Z,942.07
2023-04-04T07:58:04.576Z,942.00
2023-04-04T07:59:04.563Z,942.08
2023-04-04T08:00:04.537Z,941.99
2023-04-04T08:01:04.481Z,942.01
2023-04-04T08:02:04.565Z,941.92
2023-04-04T08:03:04.555Z,942.03
2023-04-04T08:04:04.550Z,942.00
2023-04-04T08:05:04.465Z,942.04
2023-04-04T08:06:04.435Z,941.99
2023-04-04T08:07:04.486Z,942.02
2023-04-04T08:08:04.410Z,942.07
2023-04-04T08:09:04.477Z,942.00
2023-04-04T08:10:04.402Z,942.00
2023-04-04T08:11:04.427Z,941.97
2023-04-04T08:12:04.386Z,941.95
2023-04-04T08:13:04.368Z,941.99
2023-04-04T08:14:04.338Z,941.96
2023-04-04T08:15:04.352Z,941.92
2023-04-04T08:16:04.400Z,941.86
2023-04-04T08:17:04.352Z,941.93
2023-04-04T08:18:04.357Z,941.92
2023-04-04T08:19:04.298Z,941.82
2023-04-04T08:20:04.295Z,941.98
2023-04-04T08:21:04.288Z,941.92
2023-04-04T08:22:11.918Z,941.88
2023-04-04T08:23:04.280Z,941.91
2023-04-04T08:24:04.268Z,941.96
2023-04-04T08:25:04.236Z,941.87
2023-04-04T08:26:04.240Z,941.83
2023-04-04T08:27:05.883Z,941.91
2023-04-04T08:28:04.283Z,941.91
2023-04-04T08:29:04.177Z,942.02
2023-04-04T08:30:04.221Z,942.04
2023-04-04T08:31:04.280Z,941.89
2023-04-04T08:32:04.150Z,942.02
2023-04-04T08:33:06.226Z,941.98
2023-04-04T08:34:04.170Z,941.97
2023-04-04T08:35:04.119Z,941.92
2023-04-04T08:36:04.217Z,941.92
2023-04-04T08:37:04.086Z,941.85
2023-04-04T08:38:04.074Z,941.96
2023-04-04T08:39:04.122Z,941.97
2023-04-04T08:40:04.062Z,941.96
2023-04-04T08:41:04.065Z,941.93
2023-04-04T08:42:04.134Z,941.94
2023-04-04T08:43:04.038Z,941.86
2023-04-04T08:44:04.075Z,941.89
2023-04-04T08:45:04.033Z,941.88
2023-04-04T08:46:04.019Z,941.93
2023-04-04T08:47:04.399Z,941.92
2023-04-04T08:48:04.112Z,941.83
2023-04-04T08:49:04.012Z,941.87
2023-04-04T08:50:04.007Z,941.91
2023-04-04T08:51:03.963Z,941.82
2023-04-04T08:52:03.952Z,941.85
2023-04-04T08:53:03.925Z,941.84
2023-04-04T08:54:03.925Z,941.83
2023-04-04T08:55:03.896Z,941.81
2023-04-04T08:56:03.887Z,941.89
2023-04-04T08:57:03.886Z,941.87
2023-04-04T08:58:03.874Z,941.86
2023-04-04T08:59:04.104Z,941.86
2023-04-04T09:00:04.107Z,941.85
2023-04-04T09:01:03.892Z,941.81
2023-04-04T09:02:03.844Z,941.79
2023-04-04T09:03:03.896Z,941.86
2023-04-04T09:04:03.883Z,941.78
2023-04-04T09:05:06.983Z,941.79
2023-04-04T09:06:03.818Z,941.77
2023-04-04T09:07:03.766Z,941.81
2023-04-04T09:08:03.778Z,941.69
2023-04-04T09:09:03.760Z,941.83
2023-04-04T09:10:03.742Z,941.77
2023-04-04T09:11:04.756Z,941.82
2023-04-04T09:12:03.735Z,941.83
2023-04-04T09:13:14.533Z,941.76
2023-04-04T09:14:04.699Z,941.77
2023-04-04T09:15:03.710Z,941.78
2023-04-04T09:16:03.829Z,941.74
2023-04-04T09:17:03.740Z,941.74
2023-04-04T09:18:03.696Z,941.67
2023-04-04T09:19:03.736Z,941.72
2023-04-04T09:20:03.635Z,941.64
2023-04-04T09:21:03.654Z,941.73
2023-04-04T09:22:03.611Z,941.72
2023-04-04T09:23:03.663Z,941.72
2023-04-04T09:24:04.258Z,941.69
2023-04-04T09:25:03.576Z,941.80
2023-04-04T09:26:04.853Z,941.74
2023-04-04T09:27:03.561Z,941.76
2023-04-04T09:28:03.547Z,941.72
2023-04-04T09:29:03.588Z,941.73
2023-04-04T09:30:05.359Z,941.73
2023-04-04T09:31:03.523Z,941.73
2023-04-04T09:32:03.602Z,941.64
2023-04-04T09:33:03.534Z,941.63
2023-04-04T09:34:03.512Z,941.67
2023-04-04T09:35:03.471Z,941.67
2023-04-04T09:36:03.545Z,941.66
2023-04-04T09:37:03.477Z,941.71
2023-04-04T09:38:03.718Z,941.74
2023-04-04T09:39:03.500Z,941.70
2023-04-04T09:40:03.466Z,941.64
2023-04-04T09:41:03.406Z,941.66
2023-04-04T09:42:03.390Z,941.69
2023-04-04T09:43:03.388Z,941.70
2023-04-04T09:44:03.409Z,941.65
2023-04-04T09:45:03.367Z,941.71
2023-04-04T09:46:03.375Z,941.69
2023-04-04T09:47:03.346Z,941.69
2023-04-04T09:48:03.362Z,941.76
2023-04-04T09:49:03.350Z,941.71
2023-04-04T09:50:03.306Z,941.81
2023-04-04T09:51:03.311Z,941.69
2023-04-04T09:52:03.285Z,941.76
2023-04-04T09:53:03.322Z,941.71
2023-04-04T09:54:03.303Z,941.70
2023-04-04T09:55:03.273Z,941.74
2023-04-04T09:56:03.256Z,941.67
2023-04-04T09:57:03.271Z,941.64
2023-04-04T09:58:03.255Z,941.72
2023-04-04T09:59:05.106Z,941.57
2023-04-04T10:00:03.195Z,941.53
2023-04-04T10:01:03.209Z,941.74
2023-04-04T10:02:03.188Z,941.72
2023-04-04T10:03:03.270Z,941.71
2023-04-04T10:04:03.291Z,941.72
2023-04-04T10:05:06.529Z,941.71
2023-04-04T10:06:04.924Z,941.76
2023-04-04T10:07:03.159Z,941.74
2023-04-04T10:08:03.127Z,941.73
2023-04-04T10:09:03.124Z,941.65
2023-04-04T10:10:03.101Z,941.73
2023-04-04T10:11:10.371Z,941.76
2023-04-04T10:12:04.097Z,941.82
2023-04-04T10:13:03.064Z,941.68
2023-04-04T10:14:03.871Z,941.80
2023-04-04T10:15:03.066Z,941.86
2023-04-04T10:16:03.077Z,941.71
2023-04-04T10:17:09.206Z,941.73
2023-04-04T10:18:03.197Z,941.73
2023-04-04T10:19:03.169Z,941.82
2023-04-04T10:20:03.034Z,941.78
2023-04-04T10:21:14.642Z,941.76
2023-04-04T10:22:04.029Z,941.75
2023-04-04T10:23:02.968Z,941.66
2023-04-04T10:24:02.951Z,941.51
2023-04-04T10:25:02.979Z,941.62
2023-04-04T10:26:02.935Z,941.71
2023-04-04T10:27:02.927Z,941.71
2023-04-04T10:28:02.995Z,941.72
2023-04-04T10:29:02.921Z,941.65
2023-04-04T10:30:02.985Z,941.81
2023-04-04T10:31:06.682Z,941.73
2023-04-04T10:32:02.926Z,941.70
2023-04-04T10:33:02.918Z,941.65
2023-04-04T10:34:02.858Z,941.71
2023-04-04T10:35:02.840Z,941.74
2023-04-04T10:36:02.990Z,941.63
2023-04-04T10:37:02.811Z,941.75
2023-04-04T10:38:02.836Z,941.62
2023-04-04T10:39:02.849Z,941.66
2023-04-04T10:40:02.832Z,941.71
2023-04-04T10:41:02.772Z,941.62
2023-04-04T10:42:02.800Z,941.62
2023-04-04T10:43:02.753Z,941.71
2023-04-04T10:44:02.743Z,941.76
2023-04-04T10:45:16.980Z,941.47
2023-04-04T10:46:03.714Z,941.42
2023-04-04T10:47:07.325Z,941.68
2023-04-04T10:48:02.759Z,941.58
2023-04-04T10:49:02.689Z,941.57
2023-04-04T10:50:02.697Z,941.59
2023-04-04T10:51:02.717Z,941.60
2023-04-04T10:52:02.679Z,941.65
2023-04-04T10:53:02.701Z,941.59
2023-04-04T10:54:02.632Z,941.51
2023-04-04T10:55:02.622Z,941.57
2023-04-04T10:56:02.634Z,941.55
2023-04-04T10:57:02.597Z,941.60
2023-04-04T10:58:02.591Z,941.59
2023-04-04T10:59:02.854Z,941.58
2023-04-04T11:00:02.618Z,941.55
2023-04-04T11:01:02.606Z,941.55
2023-04-04T11:02:02.549Z,941.47
2023-04-04T11:03:02.744Z,941.50
2023-04-04T11:04:02.614Z,941.57
2023-04-04T11:05:02.523Z,941.48
2023-04-04T11:06:02.506Z,941.52
2023-04-04T11:07:02.492Z,941.56
2023-04-04T11:08:07.500Z,941.40
2023-04-04T11:09:03.503Z,941.51
2023-04-04T11:10:02.500Z,941.58
2023-04-04T11:11:05.159Z,941.57
2023-04-04T11:12:03.431Z,941.20
2023-04-04T11:13:11.722Z,941.40
2023-04-04T11:14:03.423Z,941.18
2023-04-04T11:15:02.467Z,941.20
2023-04-04T11:16:02.479Z,941.21
2023-04-04T11:17:02.398Z,941.40
2023-04-04T11:18:05.963Z,941.36
2023-04-04T11:19:03.375Z,941.30
2023-04-04T11:20:02.364Z,941.36
2023-04-04T11:21:02.389Z,941.35
2023-04-04T11:22:02.337Z,941.33
2023-04-04T11:23:02.332Z,941.34
2023-04-04T11:24:02.355Z,941.07
2023-04-04T11:25:02.309Z,941.58
2023-04-04T11:26:02.296Z,941.20
2023-04-04T11:27:02.340Z,941.37
2023-04-04T11:28:02.310Z,941.30
2023-04-04T11:29:02.301Z,941.06
2023-04-04T11:30:02.254Z,941.20
2023-04-04T11:31:02.264Z,941.40
2023-04-04T11:32:02.285Z,941.36
2023-04-04T11:33:07.314Z,941.38
2023-04-04T11:34:03.234Z,941.39
2023-04-04T11:35:02.216Z,941.44
2023-04-04T11:36:02.283Z,941.38
2023-04-04T11:37:02.198Z,941.13
2023-04-04T11:38:02.167Z,941.04
2023-04-04T11:39:02.239Z,941.05
2023-04-04T11:40:02.352Z,941.31
2023-04-04T11:41:02.147Z,941.34
2023-04-04T11:42:02.152Z,941.35
2023-04-04T11:43:02.108Z,941.12
2023-04-04T11:44:02.096Z,941.14
2023-04-04T11:45:02.258Z,941.29
2023-04-04T11:46:02.122Z,941.32
2023-04-04T11:47:02.072Z,941.35
2023-04-04T11:48:02.838Z,941.19
2023-04-04T11:49:02.046Z,941.28
2023-04-04T11:50:02.048Z,941.18
2023-04-04T11:51:02.067Z,941.28
2023-04-04T11:52:02.019Z,941.26
2023-04-04T11:53:02.200Z,941.26
2023-04-04T11:54:02.006Z,941.17
2023-04-04T11:55:01.973Z,941.24
2023-04-04T11:56:01.988Z,941.19
2023-04-04T11:57:02.017Z,941.22
2023-04-04T11:58:01.948Z,941.23
2023-04-04T11:59:10.991Z,941.20
2023-04-04T12:00:02.950Z,941.15
2023-04-04T12:01:01.924Z,941.24
2023-04-04T12:02:01.946Z,941.08
2023-04-04T12:03:02.100Z,940.91
2023-04-04T12:04:01.901Z,940.91
2023-04-04T12:05:02.023Z,941.14
2023-04-04T12:06:01.891Z,941.15
2023-04-04T12:07:01.873Z,941.11
2023-04-04T12:08:01.874Z,941.15
2023-04-04T12:09:01.856Z,941.18
2023-04-04T12:10:01.826Z,941.21
2023-04-04T12:11:01.812Z,941.15
2023-04-04T12:12:01.823Z,941.07
2023-04-04T12:13:01.828Z,941.11
2023-04-04T12:14:01.851Z,941.11
2023-04-04T12:15:14.495Z,941.09
2023-04-04T12:16:02.779Z,941.15
2023-04-04T12:17:01.763Z,941.10
2023-04-04T12:18:01.772Z,941.04
2023-04-04T12:19:01.776Z,941.10
2023-04-04T12:20:01.798Z,941.18
2023-04-04T12:21:01.739Z,941.01
2023-04-04T12:22:03.009Z,940.89
2023-04-04T12:23:01.761Z,940.97
2023-04-04T12:24:01.678Z,941.09
2023-04-04T12:25:01.668Z,941.08
2023-04-04T12:26:01.668Z,941.15
2023-04-04T12:27:01.706Z,941.11
2023-04-04T12:28:01.672Z,941.12